IOLK1: Grand River, Iola

                                SHEF ID:       IOLK1     NEOSHO RIVER NEAR IOLA
STATION TYPE:
Regulating: Stage = 15.00, Flow = 18228

PRECIP STAGE RIV-FLOW AIR-TEMP BAT-LOAD
in ft cfs F volt
Ccp-Rev Ccp-Rev Ccp-Rev Ccp-Rev Ccp-Rev
(America/Chicago)
03/14 00:00 0.00 9.11 4752 10.00 12.42
03/14 01:00 0.00 9.11 4752 9.20 12.39
03/14 02:00 0.00 9.10 4718 9.20 12.37
03/14 03:00 0.00 9.11 4752 8.50 12.36
03/14 04:00 0.00 9.09 4683 7.80 12.34
03/14 05:00 0.00 9.09 4683 7.30 12.31
03/14 06:00 0.00 9.08 4649 7.00 12.30
03/14 07:00 0.00 9.08 4649 6.20 12.26
03/14 08:00 0.00 9.07 4614 6.20 12.24
03/14 09:00 0.00 9.09 4683 7.30 12.37
03/14 10:00 0.00 9.07 4614 10.00 12.99
03/14 11:00 0.00 9.07 4614 12.90 13.16
03/14 12:00 0.00 9.10 4718 16.50 12.98
03/14 13:00 0.00 9.05 4546 19.00 12.79
03/14 14:00 0.00 9.06 4580 20.20 12.84
03/14 15:00 0.00 9.08 4649 22.10 12.86
03/14 16:00 0.00 9.06 4580 23.20 12.83
03/14 17:00 0.00 9.04 4512 23.50 12.82
03/14 18:00 0.00 9.07 4614 23.20 12.80
03/14 19:00 0.00 9.06 4580 21.70 12.72
03/14 20:00 0.00 9.06 4580 19.10 12.60
03/14 21:00 0.00 9.04 4512 17.50 12.56
03/14 22:00 0.00 9.03 4478 17.20 12.53
03/14 23:00 0.00 9.04 4512 18.40 12.49
Data processed at Sun 15Mar2026 04:38 GMT

NOTICE: If you are parsing this page

Please convert to using our Data API. Starting early 2026 we will be migrating to: https://water.usace.army.mil with modern pages rendered in JavaScript. When this migration completes you will no longer be able to scrape this page! CWMSDataAPI (CDA)

Timeseries IDs (TSIDs)

TSIDs used from left to right in the data table
IOLA.Precip-Inc.Total.1Hour.1Hour.Ccp-Rev
IOLA.Stage.Inst.1Hour.0.Ccp-Rev
IOLA.Flow.Inst.1Hour.0.Ccp-Rev
IOLA.Temp-Air.Inst.1Hour.0.Ccp-Rev
IOLA.Volt-Battery Load.Inst.1Hour.0.Ccp-Rev

                            

All information presented herein is the property of the government of the United States of America and may be revised or deleted at any time without prior notice. Dissemination of this information without the expressed written consent of the Public Affairs Office, Tulsa District U.S. Army Corps of Engineers is strictly prohibited. These data are gathered electronically and, as presented, have NOT undergone any form of quality control. These data are NOT guaranteed to be valid or correct.